Chiloquin, OR (97624)

11:15 AM PDT on October 01, 2014 (GMT -0700)
Klamath Agency on Wood River Canal | Change Station
CLOSE
Current Station
Personal Weather Station
Location: Chiloquin, OR
Elevation: 4170 ft
Nearby Weather Stations
Active Advisory: Freeze Watch Active Notice: Public Information Statement

Elev 4170 ft 42.58 °N, 121.93 °W | Updated 15 minutes ago

Clear
Clear
50.6 °F
Feels Like 50.6 °F
N
1.0
Wind Variable Wind from West
Gusts 1.0 mph

Today
High -- | Low -- °F
--% Chance of Precip.
Yesterday
High -- | Low -- °F
Precip. -- in
7:04 AM 6:48 PM
Waxing Crescent, 49% visible
Pressure 30.19 in
Visibility 10.0 miles
Clouds Clear
Dew Point 40 °F
Humidity 66%
Rainfall 0.00 in
Snow Depth 0 in , 0 in , 0 in
UV 5 out of 12
Pollen 2.80 out of 12
Air Quality Not available.
Flu Activity Not available.
METAR KLMT 011753Z 00000KT 10SM CLR 09/02 A3022 RMK AO2 SLP222 T00940017 10100 21011 50001 $

More Conditions Fewer Conditions

Pressure 30.19 in
Visibility 10.0 miles
Clouds Clear
Dew Point 40 °F
Humidity 66%
Rainfall 0.00 in
Snow Depth 0 in , 0 in , 0 in
UV 5 out of 12
Pollen 2.80 out of 12
Air Quality Not available.
Flu Activity Not available.
METAR KLMT 011753Z 00000KT 10SM CLR 09/02 A3022 RMK AO2 SLP222 T00940017 10100 21011 50001 $

More Conditions Fewer Conditions

10-Day Weather Forecast

Almanac

Astronomy

Oct. 01, 2014 Rise Set
Actual Time 7:04 AM PDT 6:48 PM PDT
Civil Twilight 6:36 AM PDT 7:16 PM PDT
Nautical Twilight 6:03 AM PDT 7:49 PM PDT
Astronomical Twilight 5:30 AM PDT 8:22 PM PDT
Moon 2:15 PM PDT No Moon Set
Length of Visible Light 12h 40m
Length of Day
11h 43m
Tomorrow will be 2m 51s shorter.
Waxing Crescent, 49% of the Moon is Illuminated
Today
Waxing Crescent
Oct 1
First Quarter
Oct 8
Full
Oct 15
Last Quarter
Oct 23
New

Today's Extremes

State Highs State Lows

Community

WunderPhotos

Upload Photos

1,758,008 photos uploaded!

WunderBlogs® & News

By Dr. Jeff Masters
Director of Meteorology, Weather Underground
By Kari Strenfel
Meteorologist, Weather Underground
By Christopher C. Burt
Weather Historian, Weather Underground
October 1, 2014
October 1, 2014
October 1, 2014

Nearby

Snow Depth

Station Depth Elevation
Salt Creek Falls 0 in 4000 ft
County Line 0 in 4800 ft
Greenpoint 0 in 3200 ft
Bigelow Camp 0 in 5120 ft
Irish Taylor 0 in 5500 ft

Earthquake Activity

City Distance Mag. Time & Date
No recent earthquake activity has been reported nearby.
Minimum magnitude displayed is 2.5.

Coastal Water Temperatures

Place Temperature
No Stations Reporting

Nearby Weather Stations